TVF99KF LFML-LFRB
Flight info
| Callsign | TVF99KF |
|---|---|
| Flight time | 1h 30m |
| Altitude | 34000 |
| Route | FJR DCT GAI DCT SECHE DCT UVELI DCT CNA/N0455F320 DCT MANAK UY110 TIRAV/N0454F340 UN490 TERPO UM616 KORER DCT ERCOZ |
| Aircraft | B738/M-SDE2E3FGHIRWXY/LB1 |
Departure
| Time | 2026-04-22 12:17 |
|---|---|
| Airport | Marseille Provence Airport (LFML) |
Arrival
| Time | 2026-04-22 13:48 |
|---|---|
| Airport | Brest Bretagne airport (LFRB) |
| Time | Latitude | Longitude | Altitude | Speed | Heading |
|---|---|---|---|---|---|
| 2026-04-22 11:56 | 43.43935 | 5.22252 | 36 ft | 0 kts | 62° |
| 2026-04-22 12:10 | 43.43927 | 5.22232 | 35 ft | 4 kts | 56° |
| 2026-04-22 12:10 | 43.43914 | 5.22200 | 34 ft | 4 kts | 68° |
| 2026-04-22 12:10 | 43.43908 | 5.22166 | 33 ft | 4 kts | 104° |
| 2026-04-22 12:10 | 43.43916 | 5.22145 | 33 ft | 1 kts | 141° |
| 2026-04-22 12:11 | 43.43919 | 5.22143 | 33 ft | 0 kts | 141° |
| 2026-04-22 12:12 | 43.43895 | 5.22157 | 33 ft | 6 kts | 176° |
| 2026-04-22 12:13 | 43.43852 | 5.22122 | 36 ft | 12 kts | 222° |
| 2026-04-22 12:13 | 43.43785 | 5.22037 | 36 ft | 13 kts | 210° |
| 2026-04-22 12:13 | 43.43701 | 5.22061 | 36 ft | 13 kts | 149° |
| 2026-04-22 12:13 | 43.43625 | 5.22121 | 36 ft | 13 kts | 149° |
| 2026-04-22 12:14 | 43.43550 | 5.22181 | 36 ft | 12 kts | 150° |
| 2026-04-22 12:14 | 43.43478 | 5.22240 | 36 ft | 12 kts | 149° |
| 2026-04-22 12:14 | 43.43390 | 5.22291 | 34 ft | 18 kts | 168° |
| 2026-04-22 12:14 | 43.43290 | 5.22386 | 36 ft | 18 kts | 134° |
| 2026-04-22 12:15 | 43.43205 | 5.22507 | 36 ft | 20 kts | 133° |
| 2026-04-22 12:15 | 43.43089 | 5.22674 | 36 ft | 26 kts | 134° |
| 2026-04-22 12:15 | 43.42967 | 5.22847 | 36 ft | 24 kts | 134° |
| 2026-04-22 12:15 | 43.42875 | 5.22858 | 35 ft | 14 kts | 216° |
| 2026-04-22 12:16 | 43.42822 | 5.22736 | 34 ft | 17 kts | 272° |
| 2026-04-22 12:16 | 43.42855 | 5.22665 | 34 ft | 0 kts | 314° |
| 2026-04-22 12:16 | 43.42917 | 5.22579 | 35 ft | 40 kts | 315° |
| 2026-04-22 12:16 | 43.43278 | 5.22064 | 36 ft | 108 kts | 314° |
| 2026-04-22 12:17 | 43.43937 | 5.21125 | 38 ft | 163 kts | 314° |
| 2026-04-22 12:17 | 43.44721 | 5.19986 | 484 ft | 162 kts | 314° |
| 2026-04-22 12:17 | 43.45495 | 5.18870 | 837 ft | 165 kts | 315° |
| 2026-04-22 12:17 | 43.46287 | 5.17718 | 1037 ft | 170 kts | 315° |
| 2026-04-22 12:18 | 43.47122 | 5.16560 | 1382 ft | 173 kts | 311° |
| 2026-04-22 12:18 | 43.47740 | 5.15094 | 1655 ft | 181 kts | 291° |
| 2026-04-22 12:18 | 43.47875 | 5.13298 | 1832 ft | 204 kts | 250° |
| 2026-04-22 12:18 | 43.47003 | 5.11755 | 2059 ft | 211 kts | 205° |
| 2026-04-22 12:19 | 43.45587 | 5.11164 | 2371 ft | 218 kts | 188° |
| 2026-04-22 12:19 | 43.44107 | 5.10662 | 2869 ft | 219 kts | 191° |
| 2026-04-22 12:19 | 43.42620 | 5.10136 | 3357 ft | 221 kts | 192° |
| 2026-04-22 12:19 | 43.41124 | 5.09595 | 3857 ft | 223 kts | 192° |
| 2026-04-22 12:20 | 43.39616 | 5.09046 | 4346 ft | 225 kts | 193° |
| 2026-04-22 12:20 | 43.38174 | 5.08204 | 4804 ft | 233 kts | 216° |
| 2026-04-22 12:20 | 43.37040 | 5.06483 | 5019 ft | 248 kts | 233° |
| 2026-04-22 12:20 | 43.35972 | 5.04543 | 5320 ft | 264 kts | 232° |
| 2026-04-22 12:21 | 43.34796 | 5.02514 | 5710 ft | 276 kts | 231° |
| 2026-04-22 12:21 | 43.33583 | 5.00453 | 6410 ft | 276 kts | 233° |
| 2026-04-22 12:21 | 43.32377 | 4.98417 | 7202 ft | 273 kts | 232° |
| 2026-04-22 12:21 | 43.31144 | 4.96429 | 7917 ft | 273 kts | 233° |
| 2026-04-22 12:22 | 43.29910 | 4.94429 | 8552 ft | 278 kts | 234° |
| 2026-04-22 12:22 | 43.28646 | 4.92376 | 9183 ft | 283 kts | 236° |
| 2026-04-22 12:22 | 43.27684 | 4.90136 | 9936 ft | 273 kts | 258° |
| 2026-04-22 12:22 | 43.27444 | 4.87575 | 10483 ft | 276 kts | 274° |
| 2026-04-22 12:23 | 43.27565 | 4.84848 | 10635 ft | 297 kts | 277° |
| 2026-04-22 12:23 | 43.27770 | 4.81892 | 10796 ft | 317 kts | 277° |
| 2026-04-22 12:23 | 43.27966 | 4.78779 | 10953 ft | 336 kts | 277° |
| 2026-04-22 12:23 | 43.28150 | 4.75536 | 11362 ft | 345 kts | 276° |
| 2026-04-22 12:24 | 43.28588 | 4.72304 | 11940 ft | 346 kts | 291° |
| 2026-04-22 12:24 | 43.29646 | 4.69396 | 12612 ft | 346 kts | 298° |
| 2026-04-22 12:24 | 43.30825 | 4.66500 | 13255 ft | 350 kts | 298° |
| 2026-04-22 12:24 | 43.32019 | 4.63573 | 13878 ft | 353 kts | 298° |
| 2026-04-22 12:25 | 43.33220 | 4.60606 | 14460 ft | 356 kts | 298° |
| 2026-04-22 12:25 | 43.34422 | 4.57611 | 15075 ft | 359 kts | 298° |
| 2026-04-22 12:25 | 43.35633 | 4.54575 | 15564 ft | 366 kts | 298° |
| 2026-04-22 12:25 | 43.36860 | 4.51487 | 16121 ft | 370 kts | 298° |
| 2026-04-22 12:26 | 43.38097 | 4.48370 | 16731 ft | 373 kts | 298° |
| 2026-04-22 12:26 | 43.39338 | 4.45224 | 17296 ft | 376 kts | 298° |
| 2026-04-22 12:26 | 43.40584 | 4.42038 | 17843 ft | 380 kts | 297° |
| 2026-04-22 12:26 | 43.41840 | 4.38812 | 18382 ft | 384 kts | 297° |
| 2026-04-22 12:27 | 43.43106 | 4.35558 | 18867 ft | 388 kts | 297° |
| 2026-04-22 12:27 | 43.44384 | 4.32270 | 19372 ft | 390 kts | 297° |
| 2026-04-22 12:27 | 43.45669 | 4.28963 | 19869 ft | 393 kts | 297° |
| 2026-04-22 12:27 | 43.46962 | 4.25632 | 20350 ft | 396 kts | 297° |
| 2026-04-22 12:28 | 43.48264 | 4.22276 | 20838 ft | 399 kts | 297° |
| 2026-04-22 12:28 | 43.49574 | 4.18894 | 21301 ft | 401 kts | 297° |
| 2026-04-22 12:28 | 43.50894 | 4.15484 | 21728 ft | 405 kts | 297° |
| 2026-04-22 12:28 | 43.52222 | 4.12046 | 22180 ft | 408 kts | 297° |
| 2026-04-22 12:29 | 43.53557 | 4.08589 | 22651 ft | 410 kts | 297° |
| 2026-04-22 12:29 | 43.54901 | 4.05105 | 23075 ft | 413 kts | 297° |
| 2026-04-22 12:29 | 43.56253 | 4.01593 | 23496 ft | 416 kts | 297° |
| 2026-04-22 12:29 | 43.57588 | 3.98097 | 23855 ft | 419 kts | 296° |
| 2026-04-22 12:30 | 43.59340 | 3.90413 | 24566 ft | 423 kts | 284° |
| 2026-04-22 12:30 | 43.60020 | 3.86461 | 24874 ft | 425 kts | 283° |
| 2026-04-22 12:30 | 43.60698 | 3.82476 | 25200 ft | 427 kts | 283° |
| 2026-04-22 12:31 | 43.61388 | 3.78474 | 25525 ft | 429 kts | 284° |
| 2026-04-22 12:31 | 43.62094 | 3.74464 | 25871 ft | 431 kts | 284° |
| 2026-04-22 12:31 | 43.62813 | 3.70439 | 26206 ft | 433 kts | 284° |
| 2026-04-22 12:31 | 43.63544 | 3.66394 | 26518 ft | 435 kts | 284° |
| 2026-04-22 12:32 | 43.64281 | 3.62331 | 26815 ft | 437 kts | 284° |
| 2026-04-22 12:32 | 43.65764 | 3.54158 | 27423 ft | 441 kts | 284° |
| 2026-04-22 12:32 | 43.66509 | 3.50043 | 27687 ft | 443 kts | 284° |
| 2026-04-22 12:33 | 43.67256 | 3.45907 | 28002 ft | 444 kts | 284° |
| 2026-04-22 12:33 | 43.67999 | 3.41776 | 28450 ft | 442 kts | 284° |
| 2026-04-22 12:33 | 43.68736 | 3.37675 | 28938 ft | 439 kts | 284° |
| 2026-04-22 12:33 | 43.69468 | 3.33586 | 29339 ft | 438 kts | 284° |
| 2026-04-22 12:34 | 43.70200 | 3.29491 | 29693 ft | 439 kts | 284° |
| 2026-04-22 12:34 | 43.70930 | 3.25398 | 30072 ft | 438 kts | 284° |
| 2026-04-22 12:34 | 43.71657 | 3.21315 | 30446 ft | 437 kts | 284° |
| 2026-04-22 12:34 | 43.72377 | 3.17256 | 30831 ft | 434 kts | 284° |
| 2026-04-22 12:35 | 43.73095 | 3.13205 | 31174 ft | 433 kts | 285° |
| 2026-04-22 12:35 | 43.73807 | 3.09173 | 31499 ft | 432 kts | 285° |
| 2026-04-22 12:35 | 43.74518 | 3.05144 | 31841 ft | 430 kts | 285° |
| 2026-04-22 12:35 | 43.75223 | 3.01139 | 32254 ft | 427 kts | 285° |
| 2026-04-22 12:36 | 43.75921 | 2.97159 | 32610 ft | 425 kts | 285° |
| 2026-04-22 12:36 | 43.76617 | 2.93188 | 32915 ft | 425 kts | 285° |
| 2026-04-22 12:36 | 43.77310 | 2.89221 | 33222 ft | 424 kts | 285° |
| 2026-04-22 12:36 | 43.78000 | 2.85264 | 33574 ft | 422 kts | 285° |
| 2026-04-22 12:37 | 43.78685 | 2.81328 | 33899 ft | 420 kts | 286° |
| 2026-04-22 12:37 | 43.79370 | 2.77386 | 34026 ft | 423 kts | 286° |
| 2026-04-22 12:37 | 43.80746 | 2.69439 | 34007 ft | 424 kts | 286° |
| 2026-04-22 12:38 | 43.82108 | 2.61531 | 34012 ft | 420 kts | 285° |
| 2026-04-22 12:38 | 43.83456 | 2.53671 | 34012 ft | 419 kts | 285° |
| 2026-04-22 12:39 | 43.85459 | 2.41932 | 34000 ft | 419 kts | 285° |
| 2026-04-22 12:40 | 43.86793 | 2.34065 | 33991 ft | 419 kts | 285° |
| 2026-04-22 12:40 | 43.88124 | 2.26190 | 33985 ft | 420 kts | 285° |
| 2026-04-22 12:41 | 43.89449 | 2.18305 | 33980 ft | 420 kts | 285° |
| 2026-04-22 12:41 | 43.90770 | 2.10406 | 33981 ft | 420 kts | 284° |
| 2026-04-22 12:42 | 43.92087 | 2.02503 | 33981 ft | 421 kts | 284° |
| 2026-04-22 12:42 | 43.93399 | 1.94595 | 33964 ft | 420 kts | 284° |
| 2026-04-22 12:43 | 43.94705 | 1.86686 | 33959 ft | 420 kts | 284° |
| 2026-04-22 12:43 | 43.96567 | 1.79093 | 33970 ft | 419 kts | 298° |
| 2026-04-22 12:44 | 43.99304 | 1.71957 | 33974 ft | 419 kts | 298° |
| 2026-04-22 12:44 | 44.02040 | 1.64813 | 33977 ft | 419 kts | 298° |
| 2026-04-22 12:45 | 44.04758 | 1.57629 | 33955 ft | 420 kts | 298° |
| 2026-04-22 12:45 | 44.07459 | 1.50439 | 33951 ft | 420 kts | 297° |
| 2026-04-22 12:46 | 44.10153 | 1.43238 | 33954 ft | 420 kts | 297° |
| 2026-04-22 12:46 | 44.12844 | 1.36027 | 33970 ft | 420 kts | 297° |
| 2026-04-22 12:47 | 44.15529 | 1.28812 | 33960 ft | 420 kts | 297° |
| 2026-04-22 12:47 | 44.18210 | 1.21590 | 33961 ft | 420 kts | 297° |
| 2026-04-22 12:48 | 44.20891 | 1.14352 | 33952 ft | 420 kts | 297° |
| 2026-04-22 12:48 | 44.23114 | 1.08335 | 33965 ft | 420 kts | 297° |
| 2026-04-22 12:49 | 44.26215 | 0.99920 | 33955 ft | 420 kts | 297° |
| 2026-04-22 12:49 | 44.28879 | 0.92667 | 33965 ft | 420 kts | 297° |
| 2026-04-22 12:50 | 44.31540 | 0.85408 | 33962 ft | 420 kts | 297° |
| 2026-04-22 12:50 | 44.33766 | 0.79316 | 33960 ft | 420 kts | 297° |
| 2026-04-22 12:51 | 44.36418 | 0.72046 | 33958 ft | 420 kts | 297° |
| 2026-04-22 12:51 | 44.39065 | 0.64768 | 33965 ft | 420 kts | 297° |
| 2026-04-22 12:52 | 44.41708 | 0.57492 | 33963 ft | 420 kts | 298° |
| 2026-04-22 12:52 | 44.43324 | 0.54100 | 33959 ft | 420 kts | 310° |
| 2026-04-22 12:52 | 44.45402 | 0.51217 | 33970 ft | 422 kts | 318° |
| 2026-04-22 12:53 | 44.50402 | 0.46999 | 33981 ft | 426 kts | 332° |
| 2026-04-22 12:53 | 44.55788 | 0.43517 | 33970 ft | 426 kts | 332° |
| 2026-04-22 12:54 | 44.61170 | 0.40016 | 33959 ft | 426 kts | 332° |
| 2026-04-22 12:54 | 44.66536 | 0.36466 | 33957 ft | 426 kts | 332° |
| 2026-04-22 12:55 | 44.71890 | 0.32891 | 33969 ft | 426 kts | 332° |
| 2026-04-22 12:55 | 44.77239 | 0.29310 | 33963 ft | 426 kts | 332° |
| 2026-04-22 12:56 | 44.82587 | 0.25724 | 33949 ft | 426 kts | 332° |
| 2026-04-22 12:56 | 44.87931 | 0.22134 | 33961 ft | 425 kts | 332° |
| 2026-04-22 12:57 | 44.93269 | 0.18540 | 33959 ft | 425 kts | 332° |
| 2026-04-22 12:57 | 44.98610 | 0.14937 | 33958 ft | 425 kts | 331° |
| 2026-04-22 12:58 | 45.03905 | 0.11357 | 33950 ft | 425 kts | 331° |
| 2026-04-22 12:58 | 45.09237 | 0.07746 | 33956 ft | 425 kts | 331° |
| 2026-04-22 12:59 | 45.14563 | 0.04130 | 33942 ft | 425 kts | 331° |
| 2026-04-22 12:59 | 45.19888 | 0.00507 | 33967 ft | 424 kts | 331° |
| 2026-04-22 13:00 | 45.25211 | -0.03124 | 33934 ft | 424 kts | 331° |
| 2026-04-22 13:00 | 45.30530 | -0.06758 | 33956 ft | 424 kts | 331° |
| 2026-04-22 13:01 | 45.35849 | -0.10400 | 33958 ft | 424 kts | 331° |
| 2026-04-22 13:01 | 45.41173 | -0.14053 | 33964 ft | 425 kts | 331° |
| 2026-04-22 13:02 | 45.46496 | -0.17714 | 33962 ft | 425 kts | 331° |
| 2026-04-22 13:02 | 45.51817 | -0.21381 | 33970 ft | 425 kts | 331° |
| 2026-04-22 13:03 | 45.57144 | -0.25060 | 33969 ft | 425 kts | 331° |
| 2026-04-22 13:03 | 45.62468 | -0.28744 | 33967 ft | 425 kts | 331° |
| 2026-04-22 13:04 | 45.67596 | -0.32854 | 33952 ft | 421 kts | 320° |
| 2026-04-22 13:04 | 45.72173 | -0.38059 | 33968 ft | 420 kts | 319° |
| 2026-04-22 13:05 | 45.76739 | -0.43278 | 33961 ft | 420 kts | 319° |
| 2026-04-22 13:05 | 45.81318 | -0.48478 | 33964 ft | 420 kts | 319° |
| 2026-04-22 13:06 | 45.85903 | -0.53675 | 33971 ft | 420 kts | 319° |
| 2026-04-22 13:06 | 45.90491 | -0.58882 | 33975 ft | 420 kts | 319° |
| 2026-04-22 13:07 | 45.95075 | -0.64096 | 33975 ft | 420 kts | 319° |
| 2026-04-22 13:07 | 45.99661 | -0.69325 | 33979 ft | 421 kts | 319° |
| 2026-04-22 13:08 | 46.04246 | -0.74564 | 33979 ft | 421 kts | 319° |
| 2026-04-22 13:08 | 46.08830 | -0.79813 | 33969 ft | 421 kts | 319° |
| 2026-04-22 13:09 | 46.13413 | -0.85074 | 33979 ft | 421 kts | 319° |
| 2026-04-22 13:09 | 46.17995 | -0.90344 | 33990 ft | 422 kts | 319° |
| 2026-04-22 13:10 | 46.22550 | -0.95594 | 33985 ft | 422 kts | 319° |
| 2026-04-22 13:10 | 46.27139 | -1.00894 | 33994 ft | 422 kts | 319° |
| 2026-04-22 13:11 | 46.31728 | -1.06208 | 33989 ft | 422 kts | 319° |
| 2026-04-22 13:11 | 46.36312 | -1.11528 | 33997 ft | 422 kts | 319° |
| 2026-04-22 13:12 | 46.40892 | -1.16856 | 33995 ft | 423 kts | 318° |
| 2026-04-22 13:12 | 46.45481 | -1.22206 | 33985 ft | 423 kts | 318° |
| 2026-04-22 13:13 | 46.50069 | -1.27567 | 34010 ft | 423 kts | 318° |
| 2026-04-22 13:13 | 46.54657 | -1.32939 | 34018 ft | 424 kts | 318° |
| 2026-04-22 13:14 | 46.59272 | -1.38304 | 34024 ft | 426 kts | 321° |
| 2026-04-22 13:14 | 46.64495 | -1.42494 | 34027 ft | 432 kts | 330° |
| 2026-04-22 13:15 | 46.69925 | -1.46251 | 34024 ft | 432 kts | 330° |
| 2026-04-22 13:15 | 46.75314 | -1.50021 | 34022 ft | 432 kts | 330° |
| 2026-04-22 13:16 | 46.80724 | -1.53855 | 34017 ft | 432 kts | 330° |
| 2026-04-22 13:16 | 46.86126 | -1.57708 | 34017 ft | 432 kts | 330° |
| 2026-04-22 13:17 | 46.91522 | -1.61566 | 34017 ft | 432 kts | 330° |
| 2026-04-22 13:17 | 46.96914 | -1.65430 | 34007 ft | 432 kts | 330° |
| 2026-04-22 13:18 | 47.02301 | -1.69299 | 34018 ft | 432 kts | 330° |
| 2026-04-22 13:18 | 47.07699 | -1.73184 | 34015 ft | 432 kts | 330° |
| 2026-04-22 13:19 | 47.13099 | -1.77078 | 34050 ft | 432 kts | 330° |
| 2026-04-22 13:19 | 47.18500 | -1.80984 | 34049 ft | 433 kts | 330° |
| 2026-04-22 13:20 | 47.23904 | -1.84900 | 34040 ft | 433 kts | 330° |
| 2026-04-22 13:20 | 47.29312 | -1.88827 | 34046 ft | 433 kts | 330° |
| 2026-04-22 13:21 | 47.34546 | -1.93152 | 34041 ft | 428 kts | 320° |
| 2026-04-22 13:21 | 47.38741 | -1.99176 | 34062 ft | 423 kts | 308° |
| 2026-04-22 13:22 | 47.42578 | -2.05773 | 34044 ft | 424 kts | 308° |
| 2026-04-22 13:22 | 47.46427 | -2.12368 | 34041 ft | 424 kts | 308° |
| 2026-04-22 13:23 | 47.50304 | -2.18972 | 33693 ft | 430 kts | 308° |
| 2026-04-22 13:23 | 47.52269 | -2.22315 | 33126 ft | 430 kts | 308° |
| 2026-04-22 13:23 | 47.54226 | -2.25646 | 32471 ft | 428 kts | 308° |
| 2026-04-22 13:23 | 47.56179 | -2.28975 | 31765 ft | 429 kts | 308° |
| 2026-04-22 13:24 | 47.58139 | -2.32320 | 31014 ft | 431 kts | 308° |
| 2026-04-22 13:24 | 47.60109 | -2.35689 | 30283 ft | 433 kts | 308° |
| 2026-04-22 13:24 | 47.62076 | -2.39055 | 29667 ft | 430 kts | 308° |
| 2026-04-22 13:24 | 47.64024 | -2.42392 | 29099 ft | 426 kts | 308° |
| 2026-04-22 13:25 | 47.65951 | -2.45696 | 28577 ft | 421 kts | 308° |
| 2026-04-22 13:25 | 47.67843 | -2.48987 | 28051 ft | 416 kts | 306° |
| 2026-04-22 13:25 | 47.69459 | -2.52514 | 27216 ft | 415 kts | 295° |
| 2026-04-22 13:25 | 47.70759 | -2.56341 | 26609 ft | 414 kts | 295° |
| 2026-04-22 13:26 | 47.72049 | -2.60156 | 26031 ft | 412 kts | 295° |
| 2026-04-22 13:26 | 47.73341 | -2.63945 | 25534 ft | 408 kts | 294° |
| 2026-04-22 13:26 | 47.74624 | -2.67685 | 25041 ft | 405 kts | 295° |
| 2026-04-22 13:26 | 47.75900 | -2.71388 | 24556 ft | 402 kts | 295° |
| 2026-04-22 13:27 | 47.77169 | -2.75077 | 24054 ft | 400 kts | 295° |
| 2026-04-22 13:27 | 47.78417 | -2.78700 | 23557 ft | 398 kts | 295° |
| 2026-04-22 13:27 | 47.79677 | -2.82362 | 22996 ft | 396 kts | 294° |
| 2026-04-22 13:27 | 47.80928 | -2.85990 | 22491 ft | 393 kts | 294° |
| 2026-04-22 13:28 | 47.82165 | -2.89596 | 22011 ft | 389 kts | 295° |
| 2026-04-22 13:28 | 47.83391 | -2.93172 | 21527 ft | 386 kts | 294° |
| 2026-04-22 13:28 | 47.84606 | -2.96721 | 21065 ft | 383 kts | 294° |
| 2026-04-22 13:28 | 47.85809 | -3.00239 | 20605 ft | 380 kts | 294° |
| 2026-04-22 13:29 | 47.87001 | -3.03729 | 20144 ft | 377 kts | 294° |
| 2026-04-22 13:29 | 47.88191 | -3.07218 | 19690 ft | 375 kts | 293° |
| 2026-04-22 13:29 | 47.89366 | -3.10670 | 19240 ft | 373 kts | 293° |
| 2026-04-22 13:29 | 47.90536 | -3.14107 | 18951 ft | 369 kts | 293° |
| 2026-04-22 13:30 | 47.91650 | -3.17474 | 18686 ft | 369 kts | 293° |
| 2026-04-22 13:30 | 47.92777 | -3.21016 | 18463 ft | 374 kts | 292° |
| 2026-04-22 13:30 | 47.93892 | -3.24441 | 18055 ft | 372 kts | 294° |
| 2026-04-22 13:30 | 47.95046 | -3.27867 | 17448 ft | 367 kts | 293° |
| 2026-04-22 13:31 | 47.96200 | -3.31249 | 16656 ft | 365 kts | 294° |
| 2026-04-22 13:31 | 47.97346 | -3.34628 | 15786 ft | 366 kts | 293° |
| 2026-04-22 13:31 | 47.98494 | -3.38001 | 15179 ft | 361 kts | 293° |
| 2026-04-22 13:31 | 47.99620 | -3.41357 | 14686 ft | 361 kts | 294° |
| 2026-04-22 13:32 | 48.00753 | -3.44691 | 14258 ft | 360 kts | 294° |
| 2026-04-22 13:32 | 48.01884 | -3.48021 | 13792 ft | 359 kts | 294° |
| 2026-04-22 13:32 | 48.02996 | -3.51346 | 13325 ft | 357 kts | 294° |
| 2026-04-22 13:32 | 48.04101 | -3.54648 | 12861 ft | 355 kts | 295° |
| 2026-04-22 13:33 | 48.05204 | -3.57933 | 12411 ft | 352 kts | 295° |
| 2026-04-22 13:33 | 48.06298 | -3.61194 | 11977 ft | 349 kts | 295° |
| 2026-04-22 13:33 | 48.07381 | -3.64428 | 11556 ft | 347 kts | 295° |
| 2026-04-22 13:33 | 48.08457 | -3.67647 | 11153 ft | 345 kts | 295° |
| 2026-04-22 13:34 | 48.09524 | -3.70845 | 10846 ft | 339 kts | 295° |
| 2026-04-22 13:34 | 48.10562 | -3.73957 | 10690 ft | 329 kts | 295° |
| 2026-04-22 13:34 | 48.11568 | -3.76979 | 10535 ft | 320 kts | 294° |
| 2026-04-22 13:34 | 48.12547 | -3.79922 | 10393 ft | 311 kts | 294° |
| 2026-04-22 13:35 | 48.13497 | -3.82783 | 10257 ft | 303 kts | 294° |
| 2026-04-22 13:35 | 48.14422 | -3.85570 | 10136 ft | 295 kts | 293° |
| 2026-04-22 13:35 | 48.15338 | -3.88278 | 9914 ft | 291 kts | 294° |
| 2026-04-22 13:35 | 48.16271 | -3.90969 | 9651 ft | 289 kts | 294° |
| 2026-04-22 13:36 | 48.17166 | -3.93682 | 9237 ft | 291 kts | 287° |
| 2026-04-22 13:36 | 48.17925 | -3.96446 | 9028 ft | 286 kts | 293° |
| 2026-04-22 13:36 | 48.18805 | -3.99112 | 8774 ft | 285 kts | 295° |
| 2026-04-22 13:36 | 48.19696 | -4.01724 | 8459 ft | 285 kts | 294° |
| 2026-04-22 13:37 | 48.20590 | -4.04379 | 8174 ft | 285 kts | 294° |
| 2026-04-22 13:37 | 48.21476 | -4.07026 | 7887 ft | 284 kts | 294° |
| 2026-04-22 13:37 | 48.22356 | -4.09675 | 7610 ft | 284 kts | 294° |
| 2026-04-22 13:37 | 48.23243 | -4.12324 | 7268 ft | 287 kts | 295° |
| 2026-04-22 13:38 | 48.24160 | -4.15041 | 6845 ft | 296 kts | 292° |
| 2026-04-22 13:38 | 48.25925 | -4.20519 | 6392 ft | 289 kts | 294° |
| 2026-04-22 13:38 | 48.26807 | -4.23225 | 6084 ft | 288 kts | 294° |
| 2026-04-22 13:39 | 48.27688 | -4.25926 | 5780 ft | 288 kts | 294° |
| 2026-04-22 13:39 | 48.28581 | -4.28631 | 5257 ft | 293 kts | 294° |
| 2026-04-22 13:39 | 48.29490 | -4.31459 | 4640 ft | 297 kts | 290° |
| 2026-04-22 13:39 | 48.29898 | -4.33329 | 4781 ft | 274 kts | 278° |
| 2026-04-22 13:40 | 48.30038 | -4.36965 | 4585 ft | 252 kts | 263° |
| 2026-04-22 13:40 | 48.29947 | -4.38676 | 4442 ft | 245 kts | 259° |
| 2026-04-22 13:40 | 48.29735 | -4.41152 | 4324 ft | 231 kts | 257° |
| 2026-04-22 13:40 | 48.29479 | -4.43449 | 4209 ft | 218 kts | 255° |
| 2026-04-22 13:41 | 48.29149 | -4.45623 | 4033 ft | 210 kts | 251° |
| 2026-04-22 13:41 | 48.28768 | -4.47687 | 4008 ft | 199 kts | 251° |
| 2026-04-22 13:41 | 48.28403 | -4.49637 | 3926 ft | 190 kts | 250° |
| 2026-04-22 13:41 | 48.28260 | -4.51596 | 3720 ft | 194 kts | 279° |
| 2026-04-22 13:42 | 48.28947 | -4.53330 | 3483 ft | 200 kts | 323° |
| 2026-04-22 13:42 | 48.30172 | -4.54376 | 3267 ft | 206 kts | 334° |
| 2026-04-22 13:42 | 48.31416 | -4.55410 | 3089 ft | 203 kts | 332° |
| 2026-04-22 13:42 | 48.32637 | -4.56507 | 2787 ft | 204 kts | 331° |
| 2026-04-22 13:43 | 48.33839 | -4.57630 | 2559 ft | 201 kts | 330° |
| 2026-04-22 13:43 | 48.34989 | -4.58735 | 2432 ft | 191 kts | 330° |
| 2026-04-22 13:43 | 48.36072 | -4.59789 | 2365 ft | 179 kts | 328° |
| 2026-04-22 13:43 | 48.37143 | -4.60837 | 2382 ft | 190 kts | 330° |
| 2026-04-22 13:44 | 48.38303 | -4.61812 | 2407 ft | 188 kts | 348° |
| 2026-04-22 13:44 | 48.39546 | -4.61787 | 2321 ft | 175 kts | 31° |
| 2026-04-22 13:44 | 48.40412 | -4.60643 | 2280 ft | 164 kts | 62° |
| 2026-04-22 13:44 | 48.40839 | -4.59112 | 2153 ft | 152 kts | 77° |
| 2026-04-22 13:45 | 48.41129 | -4.57744 | 2075 ft | 127 kts | 76° |
| 2026-04-22 13:45 | 48.41415 | -4.56413 | 1929 ft | 143 kts | 75° |
| 2026-04-22 13:45 | 48.41747 | -4.55008 | 1861 ft | 142 kts | 76° |
| 2026-04-22 13:45 | 48.42068 | -4.53611 | 1656 ft | 141 kts | 73° |
| 2026-04-22 13:46 | 48.42389 | -4.52265 | 1513 ft | 134 kts | 74° |
| 2026-04-22 13:46 | 48.42701 | -4.50922 | 1238 ft | 138 kts | 75° |
| 2026-04-22 13:46 | 48.43019 | -4.49539 | 1015 ft | 136 kts | 75° |
| 2026-04-22 13:46 | 48.43324 | -4.48186 | 892 ft | 138 kts | 73° |
| 2026-04-22 13:47 | 48.43639 | -4.46857 | 772 ft | 135 kts | 70° |
| 2026-04-22 13:47 | 48.43978 | -4.45476 | 599 ft | 149 kts | 73° |
| 2026-04-22 13:47 | 48.44301 | -4.43992 | 391 ft | 144 kts | 73° |
| 2026-04-22 13:47 | 48.44599 | -4.42670 | 307 ft | 118 kts | 70° |
| 2026-04-22 13:48 | 48.44794 | -4.41816 | 335 ft | 54 kts | 71° |
| 2026-04-22 13:48 | 48.44878 | -4.41448 | 327 ft | 22 kts | 72° |
| 2026-04-22 13:48 | 48.44838 | -4.41323 | 328 ft | 15 kts | 158° |
| 2026-04-22 13:48 | 48.44782 | -4.41302 | 327 ft | 3 kts | 189° |
| 2026-04-22 13:49 | 48.44771 | -4.41326 | 329 ft | 3 kts | 248° |
| 2026-04-22 13:49 | 48.44763 | -4.41356 | 331 ft | 3 kts | 248° |
| 2026-04-22 13:49 | 48.44755 | -4.41387 | 329 ft | 4 kts | 248° |
| 2026-04-22 13:49 | 48.44746 | -4.41427 | 331 ft | 6 kts | 254° |
| 2026-04-22 13:50 | 48.44730 | -4.41520 | 328 ft | 10 kts | 253° |
| 2026-04-22 13:50 | 48.44694 | -4.41608 | 332 ft | 10 kts | 213° |
| 2026-04-22 13:50 | 48.44645 | -4.41707 | 331 ft | 15 kts | 251° |
| 2026-04-22 13:50 | 48.44611 | -4.41851 | 328 ft | 14 kts | 249° |
| 2026-04-22 13:51 | 48.44581 | -4.41991 | 330 ft | 14 kts | 250° |
| 2026-04-22 13:51 | 48.44532 | -4.42091 | 330 ft | 12 kts | 199° |
| 2026-04-22 13:51 | 48.44466 | -4.42164 | 331 ft | 12 kts | 220° |
| 2026-04-22 13:51 | 48.44426 | -4.42166 | 330 ft | 6 kts | 142° |
| 2026-04-22 13:52 | 48.44408 | -4.42144 | 330 ft | 0 kts | 141° |